sensor_id;sensor_type;location;lat;lon;timestamp;P1;durP1;ratioP1;P2;durP2;ratioP2
261;SDS011;114;48.260;10.988;2024-03-08T00:02:24;23.40;;;16.37;;
261;SDS011;114;48.260;10.988;2024-03-08T00:04:51;22.90;;;16.57;;
261;SDS011;114;48.260;10.988;2024-03-08T00:07:17;26.60;;;16.47;;
261;SDS011;114;48.260;10.988;2024-03-08T00:09:42;24.40;;;16.00;;
261;SDS011;114;48.260;10.988;2024-03-08T00:12:09;23.50;;;16.10;;
261;SDS011;114;48.260;10.988;2024-03-08T00:14:35;23.90;;;16.50;;
261;SDS011;114;48.260;10.988;2024-03-08T00:17:03;23.97;;;15.93;;
261;SDS011;114;48.260;10.988;2024-03-08T00:19:29;28.20;;;16.50;;
261;SDS011;114;48.260;10.988;2024-03-08T00:21:55;23.67;;;16.47;;
261;SDS011;114;48.260;10.988;2024-03-08T00:24:22;27.43;;;16.67;;
261;SDS011;114;48.260;10.988;2024-03-08T00:26:50;23.73;;;16.77;;
261;SDS011;114;48.260;10.988;2024-03-08T00:29:15;27.30;;;17.50;;
261;SDS011;114;48.260;10.988;2024-03-08T00:31:41;23.10;;;14.90;;
261;SDS011;114;48.260;10.988;2024-03-08T00:34:07;24.10;;;15.70;;
261;SDS011;114;48.260;10.988;2024-03-08T00:36:36;28.90;;;17.57;;
261;SDS011;114;48.260;10.988;2024-03-08T00:39:02;25.00;;;16.83;;
261;SDS011;114;48.260;10.988;2024-03-08T00:41:32;26.70;;;16.40;;
261;SDS011;114;48.260;10.988;2024-03-08T00:43:59;28.00;;;17.23;;
261;SDS011;114;48.260;10.988;2024-03-08T00:46:25;26.43;;;17.23;;
261;SDS011;114;48.260;10.988;2024-03-08T00:48:52;24.90;;;16.37;;
261;SDS011;114;48.260;10.988;2024-03-08T00:51:18;24.17;;;17.63;;
261;SDS011;114;48.260;10.988;2024-03-08T00:53:44;26.90;;;17.07;;
261;SDS011;114;48.260;10.988;2024-03-08T00:56:09;26.47;;;17.60;;
261;SDS011;114;48.260;10.988;2024-03-08T00:58:39;27.43;;;16.40;;
261;SDS011;114;48.260;10.988;2024-03-08T01:01:05;24.53;;;16.60;;
261;SDS011;114;48.260;10.988;2024-03-08T01:03:31;24.20;;;16.50;;
261;SDS011;114;48.260;10.988;2024-03-08T01:05:57;23.17;;;16.33;;
261;SDS011;114;48.260;10.988;2024-03-08T01:08:26;22.13;;;15.67;;
261;SDS011;114;48.260;10.988;2024-03-08T01:10:52;26.67;;;17.40;;
261;SDS011;114;48.260;10.988;2024-03-08T01:13:19;31.63;;;16.37;;
261;SDS011;114;48.260;10.988;2024-03-08T01:15:45;24.80;;;17.37;;
261;SDS011;114;48.260;10.988;2024-03-08T01:18:11;28.90;;;16.50;;
261;SDS011;114;48.260;10.988;2024-03-08T01:20:36;30.03;;;17.93;;
261;SDS011;114;48.260;10.988;2024-03-08T01:23:03;22.63;;;15.60;;
261;SDS011;114;48.260;10.988;2024-03-08T01:25:32;31.70;;;17.40;;
261;SDS011;114;48.260;10.988;2024-03-08T01:27:59;26.43;;;17.60;;
261;SDS011;114;48.260;10.988;2024-03-08T01:30:25;25.77;;;16.43;;
261;SDS011;114;48.260;10.988;2024-03-08T01:32:51;22.73;;;15.20;;
261;SDS011;114;48.260;10.988;2024-03-08T01:35:16;24.63;;;16.83;;
261;SDS011;114;48.260;10.988;2024-03-08T01:37:44;24.40;;;16.50;;
261;SDS011;114;48.260;10.988;2024-03-08T01:40:10;28.63;;;17.17;;
261;SDS011;114;48.260;10.988;2024-03-08T01:42:36;25.20;;;15.27;;
261;SDS011;114;48.260;10.988;2024-03-08T01:45:05;25.77;;;16.20;;
261;SDS011;114;48.260;10.988;2024-03-08T01:47:33;24.63;;;16.63;;
261;SDS011;114;48.260;10.988;2024-03-08T01:50:00;24.17;;;15.30;;
261;SDS011;114;48.260;10.988;2024-03-08T01:52:31;29.67;;;17.10;;
261;SDS011;114;48.260;10.988;2024-03-08T01:55:04;24.93;;;14.97;;
261;SDS011;114;48.260;10.988;2024-03-08T01:57:32;27.00;;;15.60;;
261;SDS011;114;48.260;10.988;2024-03-08T02:00:02;22.73;;;15.23;;
261;SDS011;114;48.260;10.988;2024-03-08T02:02:32;22.90;;;15.90;;
261;SDS011;114;48.260;10.988;2024-03-08T02:05:02;23.17;;;16.47;;
261;SDS011;114;48.260;10.988;2024-03-08T02:07:29;23.80;;;15.90;;
261;SDS011;114;48.260;10.988;2024-03-08T02:09:56;25.53;;;16.90;;
261;SDS011;114;48.260;10.988;2024-03-08T02:12:22;26.70;;;16.77;;
261;SDS011;114;48.260;10.988;2024-03-08T02:14:48;25.10;;;16.47;;
261;SDS011;114;48.260;10.988;2024-03-08T02:17:15;25.23;;;16.20;;
261;SDS011;114;48.260;10.988;2024-03-08T02:19:40;25.47;;;16.70;;
261;SDS011;114;48.260;10.988;2024-03-08T02:22:06;30.30;;;17.50;;
261;SDS011;114;48.260;10.988;2024-03-08T02:24:32;30.83;;;17.33;;
261;SDS011;114;48.260;10.988;2024-03-08T02:26:58;26.47;;;16.57;;
261;SDS011;114;48.260;10.988;2024-03-08T02:29:24;25.37;;;16.00;;
261;SDS011;114;48.260;10.988;2024-03-08T02:31:53;23.00;;;15.13;;
261;SDS011;114;48.260;10.988;2024-03-08T02:34:20;32.90;;;18.60;;
261;SDS011;114;48.260;10.988;2024-03-08T02:36:46;31.13;;;16.80;;
261;SDS011;114;48.260;10.988;2024-03-08T02:39:12;28.90;;;16.57;;
261;SDS011;114;48.260;10.988;2024-03-08T02:41:38;26.90;;;17.87;;
261;SDS011;114;48.260;10.988;2024-03-08T02:44:03;23.70;;;17.20;;
261;SDS011;114;48.260;10.988;2024-03-08T02:46:29;25.80;;;16.80;;
261;SDS011;114;48.260;10.988;2024-03-08T02:48:56;28.87;;;16.60;;
261;SDS011;114;48.260;10.988;2024-03-08T02:51:22;26.90;;;16.37;;
261;SDS011;114;48.260;10.988;2024-03-08T02:53:48;28.57;;;17.60;;
261;SDS011;114;48.260;10.988;2024-03-08T02:56:14;25.37;;;16.93;;
261;SDS011;114;48.260;10.988;2024-03-08T02:58:42;25.07;;;16.00;;
261;SDS011;114;48.260;10.988;2024-03-08T03:01:08;26.70;;;16.70;;
261;SDS011;114;48.260;10.988;2024-03-08T03:03:35;25.10;;;17.47;;
261;SDS011;114;48.260;10.988;2024-03-08T03:06:02;24.93;;;16.07;;
261;SDS011;114;48.260;10.988;2024-03-08T03:08:27;29.60;;;18.30;;
261;SDS011;114;48.260;10.988;2024-03-08T03:10:53;25.07;;;16.30;;
261;SDS011;114;48.260;10.988;2024-03-08T03:13:21;28.90;;;19.20;;
261;SDS011;114;48.260;10.988;2024-03-08T03:15:47;27.20;;;17.67;;
261;SDS011;114;48.260;10.988;2024-03-08T03:18:13;29.97;;;17.37;;
261;SDS011;114;48.260;10.988;2024-03-08T03:20:39;29.30;;;17.90;;
261;SDS011;114;48.260;10.988;2024-03-08T03:23:08;30.27;;;17.80;;
261;SDS011;114;48.260;10.988;2024-03-08T03:25:34;30.57;;;18.13;;
261;SDS011;114;48.260;10.988;2024-03-08T03:28:01;33.73;;;18.90;;
261;SDS011;114;48.260;10.988;2024-03-08T03:30:27;29.10;;;17.80;;
261;SDS011;114;48.260;10.988;2024-03-08T03:32:58;28.60;;;16.70;;
261;SDS011;114;48.260;10.988;2024-03-08T03:35:27;29.43;;;17.97;;
261;SDS011;114;48.260;10.988;2024-03-08T03:37:56;25.53;;;17.53;;
261;SDS011;114;48.260;10.988;2024-03-08T03:40:34;28.50;;;18.37;;
261;SDS011;114;48.260;10.988;2024-03-08T03:43:00;28.10;;;20.20;;
261;SDS011;114;48.260;10.988;2024-03-08T03:45:27;28.90;;;18.73;;
261;SDS011;114;48.260;10.988;2024-03-08T03:47:55;31.40;;;19.77;;
261;SDS011;114;48.260;10.988;2024-03-08T03:50:21;33.43;;;19.63;;
261;SDS011;114;48.260;10.988;2024-03-08T03:52:48;30.93;;;19.00;;
261;SDS011;114;48.260;10.988;2024-03-08T03:55:14;29.77;;;18.53;;
261;SDS011;114;48.260;10.988;2024-03-08T03:57:40;32.00;;;20.07;;
261;SDS011;114;48.260;10.988;2024-03-08T04:00:07;33.37;;;19.90;;
261;SDS011;114;48.260;10.988;2024-03-08T04:02:39;32.13;;;18.90;;
261;SDS011;114;48.260;10.988;2024-03-08T04:05:06;36.43;;;19.60;;
261;SDS011;114;48.260;10.988;2024-03-08T04:07:33;33.30;;;20.30;;
261;SDS011;114;48.260;10.988;2024-03-08T04:10:00;36.47;;;21.63;;
261;SDS011;114;48.260;10.988;2024-03-08T04:12:31;33.63;;;19.60;;
261;SDS011;114;48.260;10.988;2024-03-08T04:14:59;33.50;;;19.70;;
261;SDS011;114;48.260;10.988;2024-03-08T04:17:25;31.63;;;19.90;;
261;SDS011;114;48.260;10.988;2024-03-08T04:19:51;33.93;;;20.77;;
261;SDS011;114;48.260;10.988;2024-03-08T04:22:17;35.03;;;19.70;;
261;SDS011;114;48.260;10.988;2024-03-08T04:24:43;31.10;;;18.67;;
261;SDS011;114;48.260;10.988;2024-03-08T04:27:10;38.50;;;21.10;;
261;SDS011;114;48.260;10.988;2024-03-08T04:29:35;32.90;;;21.10;;
261;SDS011;114;48.260;10.988;2024-03-08T04:32:04;35.77;;;22.07;;
261;SDS011;114;48.260;10.988;2024-03-08T04:34:32;37.80;;;21.90;;
261;SDS011;114;48.260;10.988;2024-03-08T04:37:01;36.50;;;21.80;;
261;SDS011;114;48.260;10.988;2024-03-08T04:39:27;29.87;;;19.47;;
261;SDS011;114;48.260;10.988;2024-03-08T04:41:54;40.33;;;21.30;;
261;SDS011;114;48.260;10.988;2024-03-08T04:44:23;36.43;;;21.17;;
261;SDS011;114;48.260;10.988;2024-03-08T04:46:52;36.97;;;21.10;;
261;SDS011;114;48.260;10.988;2024-03-08T04:49:17;34.77;;;20.47;;
261;SDS011;114;48.260;10.988;2024-03-08T04:51:43;36.37;;;21.83;;
261;SDS011;114;48.260;10.988;2024-03-08T04:54:10;36.50;;;23.20;;
261;SDS011;114;48.260;10.988;2024-03-08T04:56:35;36.37;;;21.67;;
261;SDS011;114;48.260;10.988;2024-03-08T04:59:01;35.20;;;21.13;;
261;SDS011;114;48.260;10.988;2024-03-08T05:01:27;35.27;;;22.13;;
261;SDS011;114;48.260;10.988;2024-03-08T05:03:53;32.47;;;20.60;;
261;SDS011;114;48.260;10.988;2024-03-08T05:06:20;37.60;;;22.53;;
261;SDS011;114;48.260;10.988;2024-03-08T05:08:46;46.17;;;25.10;;
261;SDS011;114;48.260;10.988;2024-03-08T05:11:12;39.40;;;23.03;;
261;SDS011;114;48.260;10.988;2024-03-08T05:13:39;41.57;;;23.27;;
261;SDS011;114;48.260;10.988;2024-03-08T05:16:05;44.00;;;22.70;;
261;SDS011;114;48.260;10.988;2024-03-08T05:18:33;35.57;;;22.30;;
261;SDS011;114;48.260;10.988;2024-03-08T05:20:59;38.93;;;22.83;;
261;SDS011;114;48.260;10.988;2024-03-08T05:23:25;36.40;;;22.43;;
261;SDS011;114;48.260;10.988;2024-03-08T05:25:51;38.70;;;23.20;;
261;SDS011;114;48.260;10.988;2024-03-08T05:28:16;39.97;;;22.93;;
261;SDS011;114;48.260;10.988;2024-03-08T05:30:42;35.37;;;23.37;;
261;SDS011;114;48.260;10.988;2024-03-08T05:33:08;37.63;;;22.60;;
261;SDS011;114;48.260;10.988;2024-03-08T05:35:39;40.90;;;24.07;;
261;SDS011;114;48.260;10.988;2024-03-08T05:38:06;38.53;;;24.53;;
261;SDS011;114;48.260;10.988;2024-03-08T05:40:32;41.40;;;24.10;;
261;SDS011;114;48.260;10.988;2024-03-08T05:43:00;37.67;;;22.43;;
261;SDS011;114;48.260;10.988;2024-03-08T05:45:26;39.73;;;24.57;;
261;SDS011;114;48.260;10.988;2024-03-08T05:47:52;38.33;;;25.20;;
261;SDS011;114;48.260;10.988;2024-03-08T05:50:18;40.57;;;23.70;;
261;SDS011;114;48.260;10.988;2024-03-08T05:52:45;38.57;;;25.13;;
261;SDS011;114;48.260;10.988;2024-03-08T05:55:12;37.47;;;24.00;;
261;SDS011;114;48.260;10.988;2024-03-08T05:57:40;44.73;;;23.60;;
261;SDS011;114;48.260;10.988;2024-03-08T06:00:07;37.50;;;25.17;;
261;SDS011;114;48.260;10.988;2024-03-08T06:02:36;36.50;;;23.10;;
261;SDS011;114;48.260;10.988;2024-03-08T06:05:07;35.90;;;22.57;;
261;SDS011;114;48.260;10.988;2024-03-08T06:07:34;36.57;;;22.80;;
261;SDS011;114;48.260;10.988;2024-03-08T06:09:59;33.93;;;22.30;;
261;SDS011;114;48.260;10.988;2024-03-08T06:12:25;31.57;;;21.23;;
261;SDS011;114;48.260;10.988;2024-03-08T06:14:57;34.70;;;23.50;;
261;SDS011;114;48.260;10.988;2024-03-08T06:17:23;36.97;;;22.67;;
261;SDS011;114;48.260;10.988;2024-03-08T06:19:50;34.80;;;20.63;;
261;SDS011;114;48.260;10.988;2024-03-08T06:22:17;41.03;;;24.90;;
261;SDS011;114;48.260;10.988;2024-03-08T06:24:45;32.10;;;22.53;;
261;SDS011;114;48.260;10.988;2024-03-08T06:27:10;30.63;;;21.27;;
261;SDS011;114;48.260;10.988;2024-03-08T06:29:36;32.13;;;21.90;;
261;SDS011;114;48.260;10.988;2024-03-08T06:32:02;36.90;;;23.47;;
261;SDS011;114;48.260;10.988;2024-03-08T06:34:29;40.17;;;24.70;;
261;SDS011;114;48.260;10.988;2024-03-08T06:36:54;36.23;;;23.20;;
261;SDS011;114;48.260;10.988;2024-03-08T06:39:26;34.20;;;23.60;;
261;SDS011;114;48.260;10.988;2024-03-08T06:41:51;38.80;;;23.83;;
261;SDS011;114;48.260;10.988;2024-03-08T06:44:17;32.30;;;21.70;;
261;SDS011;114;48.260;10.988;2024-03-08T06:46:43;38.53;;;23.47;;
261;SDS011;114;48.260;10.988;2024-03-08T06:49:09;39.93;;;23.37;;
261;SDS011;114;48.260;10.988;2024-03-08T06:51:36;32.47;;;21.57;;
261;SDS011;114;48.260;10.988;2024-03-08T06:54:01;34.27;;;22.00;;
261;SDS011;114;48.260;10.988;2024-03-08T06:56:33;35.67;;;21.10;;
261;SDS011;114;48.260;10.988;2024-03-08T06:59:02;27.60;;;19.63;;
261;SDS011;114;48.260;10.988;2024-03-08T07:01:31;31.53;;;20.47;;
261;SDS011;114;48.260;10.988;2024-03-08T07:03:57;30.37;;;20.87;;
261;SDS011;114;48.260;10.988;2024-03-08T07:06:23;26.10;;;18.20;;
261;SDS011;114;48.260;10.988;2024-03-08T07:08:50;25.90;;;18.00;;
261;SDS011;114;48.260;10.988;2024-03-08T07:11:15;27.70;;;19.50;;
261;SDS011;114;48.260;10.988;2024-03-08T07:13:46;24.03;;;17.67;;
261;SDS011;114;48.260;10.988;2024-03-08T07:16:12;29.33;;;18.97;;
261;SDS011;114;48.260;10.988;2024-03-08T07:18:38;25.87;;;19.37;;
261;SDS011;114;48.260;10.988;2024-03-08T07:21:08;28.53;;;19.43;;
261;SDS011;114;48.260;10.988;2024-03-08T07:23:35;32.60;;;20.73;;
261;SDS011;114;48.260;10.988;2024-03-08T07:26:34;29.00;;;19.53;;
261;SDS011;114;48.260;10.988;2024-03-08T07:29:02;29.23;;;19.80;;
261;SDS011;114;48.260;10.988;2024-03-08T07:31:28;33.60;;;19.67;;
261;SDS011;114;48.260;10.988;2024-03-08T07:34:09;28.63;;;18.70;;
261;SDS011;114;48.260;10.988;2024-03-08T07:36:35;31.20;;;19.87;;
261;SDS011;114;48.260;10.988;2024-03-08T07:39:01;26.90;;;18.33;;
261;SDS011;114;48.260;10.988;2024-03-08T07:41:27;30.40;;;19.90;;
261;SDS011;114;48.260;10.988;2024-03-08T07:43:55;27.47;;;18.57;;
261;SDS011;114;48.260;10.988;2024-03-08T07:46:20;28.97;;;19.97;;
261;SDS011;114;48.260;10.988;2024-03-08T07:48:46;26.10;;;17.50;;
261;SDS011;114;48.260;10.988;2024-03-08T07:51:15;29.43;;;19.13;;
261;SDS011;114;48.260;10.988;2024-03-08T07:53:44;30.87;;;19.63;;
261;SDS011;114;48.260;10.988;2024-03-08T07:56:10;29.87;;;19.10;;
261;SDS011;114;48.260;10.988;2024-03-08T07:58:39;31.50;;;18.80;;
261;SDS011;114;48.260;10.988;2024-03-08T08:01:07;29.67;;;19.33;;
261;SDS011;114;48.260;10.988;2024-03-08T08:03:41;28.37;;;19.13;;
261;SDS011;114;48.260;10.988;2024-03-08T08:06:07;26.20;;;18.33;;
261;SDS011;114;48.260;10.988;2024-03-08T08:08:32;27.57;;;18.43;;
261;SDS011;114;48.260;10.988;2024-03-08T08:10:58;27.60;;;18.03;;
261;SDS011;114;48.260;10.988;2024-03-08T08:13:25;29.47;;;19.83;;
261;SDS011;114;48.260;10.988;2024-03-08T08:15:53;28.53;;;18.77;;
261;SDS011;114;48.260;10.988;2024-03-08T08:18:21;30.07;;;19.03;;
261;SDS011;114;48.260;10.988;2024-03-08T08:20:50;27.70;;;18.80;;
261;SDS011;114;48.260;10.988;2024-03-08T08:23:17;30.90;;;20.67;;
261;SDS011;114;48.260;10.988;2024-03-08T08:25:44;30.23;;;19.07;;
261;SDS011;114;48.260;10.988;2024-03-08T08:28:10;24.90;;;17.50;;
261;SDS011;114;48.260;10.988;2024-03-08T08:30:37;33.80;;;19.37;;
261;SDS011;114;48.260;10.988;2024-03-08T08:33:03;30.17;;;20.37;;
261;SDS011;114;48.260;10.988;2024-03-08T08:35:30;83.20;;;44.27;;
261;SDS011;114;48.260;10.988;2024-03-08T08:37:59;28.50;;;18.43;;
261;SDS011;114;48.260;10.988;2024-03-08T08:40:33;27.63;;;19.70;;
261;SDS011;114;48.260;10.988;2024-03-08T08:43:08;26.20;;;17.80;;
261;SDS011;114;48.260;10.988;2024-03-08T08:45:34;27.93;;;17.93;;
261;SDS011;114;48.260;10.988;2024-03-08T08:47:59;31.50;;;18.27;;
261;SDS011;114;48.260;10.988;2024-03-08T08:50:26;27.00;;;17.33;;
261;SDS011;114;48.260;10.988;2024-03-08T08:52:53;27.87;;;18.13;;
261;SDS011;114;48.260;10.988;2024-03-08T08:55:22;29.13;;;17.90;;
261;SDS011;114;48.260;10.988;2024-03-08T08:57:51;27.17;;;18.20;;
261;SDS011;114;48.260;10.988;2024-03-08T09:00:18;26.17;;;17.50;;
261;SDS011;114;48.260;10.988;2024-03-08T09:02:45;29.10;;;19.67;;
261;SDS011;114;48.260;10.988;2024-03-08T09:05:13;29.43;;;18.50;;
261;SDS011;114;48.260;10.988;2024-03-08T09:07:42;26.10;;;17.60;;
261;SDS011;114;48.260;10.988;2024-03-08T09:10:10;24.40;;;17.23;;
261;SDS011;114;48.260;10.988;2024-03-08T09:12:38;26.10;;;18.20;;
261;SDS011;114;48.260;10.988;2024-03-08T09:15:05;23.00;;;17.17;;
261;SDS011;114;48.260;10.988;2024-03-08T09:17:37;24.60;;;17.10;;
261;SDS011;114;48.260;10.988;2024-03-08T09:20:08;25.87;;;18.10;;
261;SDS011;114;48.260;10.988;2024-03-08T09:22:40;26.10;;;18.20;;
261;SDS011;114;48.260;10.988;2024-03-08T09:25:09;24.20;;;17.20;;
261;SDS011;114;48.260;10.988;2024-03-08T09:27:35;26.60;;;18.33;;
261;SDS011;114;48.260;10.988;2024-03-08T09:30:01;26.50;;;18.37;;
261;SDS011;114;48.260;10.988;2024-03-08T09:32:30;23.43;;;17.50;;
261;SDS011;114;48.260;10.988;2024-03-08T09:35:09;30.80;;;19.63;;
261;SDS011;114;48.260;10.988;2024-03-08T09:37:39;23.87;;;17.17;;
261;SDS011;114;48.260;10.988;2024-03-08T09:40:04;24.00;;;17.33;;
261;SDS011;114;48.260;10.988;2024-03-08T09:42:34;24.87;;;18.10;;
261;SDS011;114;48.260;10.988;2024-03-08T09:45:05;26.80;;;19.03;;
261;SDS011;114;48.260;10.988;2024-03-08T09:47:44;29.23;;;19.63;;
261;SDS011;114;48.260;10.988;2024-03-08T09:50:10;31.27;;;20.83;;
261;SDS011;114;48.260;10.988;2024-03-08T09:52:41;29.40;;;20.53;;
261;SDS011;114;48.260;10.988;2024-03-08T09:55:11;38.90;;;20.40;;
261;SDS011;114;48.260;10.988;2024-03-08T09:57:37;31.53;;;21.00;;
261;SDS011;114;48.260;10.988;2024-03-08T10:00:05;28.57;;;19.83;;
261;SDS011;114;48.260;10.988;2024-03-08T10:02:47;30.83;;;20.30;;
261;SDS011;114;48.260;10.988;2024-03-08T10:05:13;108.30;;;22.10;;
261;SDS011;114;48.260;10.988;2024-03-08T10:07:39;28.40;;;19.87;;
261;SDS011;114;48.260;10.988;2024-03-08T10:10:05;33.73;;;20.53;;
261;SDS011;114;48.260;10.988;2024-03-08T10:12:34;27.40;;;19.60;;
261;SDS011;114;48.260;10.988;2024-03-08T10:15:01;33.57;;;20.57;;
261;SDS011;114;48.260;10.988;2024-03-08T10:17:27;36.47;;;21.27;;
261;SDS011;114;48.260;10.988;2024-03-08T10:19:57;31.10;;;20.43;;
261;SDS011;114;48.260;10.988;2024-03-08T10:22:25;28.73;;;20.23;;
261;SDS011;114;48.260;10.988;2024-03-08T10:24:51;31.60;;;18.97;;
261;SDS011;114;48.260;10.988;2024-03-08T10:27:17;30.60;;;20.33;;
261;SDS011;114;48.260;10.988;2024-03-08T10:29:47;30.70;;;20.60;;
261;SDS011;114;48.260;10.988;2024-03-08T10:32:16;28.10;;;19.47;;
261;SDS011;114;48.260;10.988;2024-03-08T10:34:44;31.87;;;21.30;;
261;SDS011;114;48.260;10.988;2024-03-08T10:37:12;24.63;;;18.43;;
261;SDS011;114;48.260;10.988;2024-03-08T10:39:43;28.00;;;20.37;;
261;SDS011;114;48.260;10.988;2024-03-08T10:47:40;36.70;;;23.50;;
261;SDS011;114;48.260;10.988;2024-03-08T10:50:19;34.83;;;23.77;;
261;SDS011;114;48.260;10.988;2024-03-08T10:52:50;42.03;;;23.57;;
261;SDS011;114;48.260;10.988;2024-03-08T10:55:18;33.70;;;22.27;;
261;SDS011;114;48.260;10.988;2024-03-08T10:57:47;36.73;;;22.43;;
261;SDS011;114;48.260;10.988;2024-03-08T11:00:13;31.70;;;23.20;;
261;SDS011;114;48.260;10.988;2024-03-08T11:02:43;32.07;;;21.23;;
261;SDS011;114;48.260;10.988;2024-03-08T11:05:10;30.80;;;20.50;;
261;SDS011;114;48.260;10.988;2024-03-08T11:07:43;32.37;;;22.40;;
261;SDS011;114;48.260;10.988;2024-03-08T11:10:19;30.97;;;21.03;;
261;SDS011;114;48.260;10.988;2024-03-08T11:12:45;30.43;;;21.03;;
261;SDS011;114;48.260;10.988;2024-03-08T11:15:13;33.10;;;23.70;;
261;SDS011;114;48.260;10.988;2024-03-08T11:17:40;27.13;;;20.90;;
261;SDS011;114;48.260;10.988;2024-03-08T11:20:13;31.00;;;20.43;;
261;SDS011;114;48.260;10.988;2024-03-08T11:22:48;26.17;;;20.50;;
261;SDS011;114;48.260;10.988;2024-03-08T11:25:33;26.93;;;20.70;;
261;SDS011;114;48.260;10.988;2024-03-08T11:28:13;28.40;;;18.50;;
261;SDS011;114;48.260;10.988;2024-03-08T11:33:29;24.60;;;18.50;;
261;SDS011;114;48.260;10.988;2024-03-08T11:36:11;25.60;;;19.57;;
261;SDS011;114;48.260;10.988;2024-03-08T11:38:42;25.40;;;19.30;;
261;SDS011;114;48.260;10.988;2024-03-08T11:41:17;23.43;;;19.10;;
261;SDS011;114;48.260;10.988;2024-03-08T11:43:45;26.50;;;20.07;;
261;SDS011;114;48.260;10.988;2024-03-08T11:46:11;24.37;;;19.33;;
261;SDS011;114;48.260;10.988;2024-03-08T11:48:41;26.37;;;19.70;;
261;SDS011;114;48.260;10.988;2024-03-08T11:51:10;23.90;;;18.03;;
261;SDS011;114;48.260;10.988;2024-03-08T11:53:40;24.13;;;16.90;;
261;SDS011;114;48.260;10.988;2024-03-08T11:56:22;28.33;;;17.60;;
261;SDS011;114;48.260;10.988;2024-03-08T11:58:56;25.33;;;20.03;;
261;SDS011;114;48.260;10.988;2024-03-08T12:01:22;24.00;;;19.10;;
261;SDS011;114;48.260;10.988;2024-03-08T12:03:52;27.03;;;20.77;;
261;SDS011;114;48.260;10.988;2024-03-08T12:06:21;19.90;;;17.67;;
261;SDS011;114;48.260;10.988;2024-03-08T12:08:48;23.30;;;18.20;;
261;SDS011;114;48.260;10.988;2024-03-08T12:11:14;22.20;;;18.00;;
261;SDS011;114;48.260;10.988;2024-03-08T12:13:41;24.27;;;19.40;;
261;SDS011;114;48.260;10.988;2024-03-08T12:16:07;22.53;;;18.73;;
261;SDS011;114;48.260;10.988;2024-03-08T12:18:35;30.00;;;19.80;;
261;SDS011;114;48.260;10.988;2024-03-08T12:23:33;24.00;;;19.50;;
261;SDS011;114;48.260;10.988;2024-03-08T12:26:16;31.63;;;20.37;;
261;SDS011;114;48.260;10.988;2024-03-08T12:28:44;21.40;;;16.67;;
261;SDS011;114;48.260;10.988;2024-03-08T12:31:11;22.43;;;18.67;;
261;SDS011;114;48.260;10.988;2024-03-08T12:34:00;22.60;;;16.93;;
261;SDS011;114;48.260;10.988;2024-03-08T12:36:25;19.83;;;16.00;;
261;SDS011;114;48.260;10.988;2024-03-08T12:38:53;22.37;;;17.80;;
261;SDS011;114;48.260;10.988;2024-03-08T12:41:23;23.70;;;18.63;;
261;SDS011;114;48.260;10.988;2024-03-08T12:44:00;20.93;;;16.83;;
261;SDS011;114;48.260;10.988;2024-03-08T12:49:10;22.23;;;17.13;;
261;SDS011;114;48.260;10.988;2024-03-08T12:54:25;23.57;;;17.30;;
261;SDS011;114;48.260;10.988;2024-03-08T12:56:56;22.67;;;17.40;;
261;SDS011;114;48.260;10.988;2024-03-08T12:59:24;20.53;;;16.90;;
261;SDS011;114;48.260;10.988;2024-03-08T13:01:56;20.50;;;15.90;;
261;SDS011;114;48.260;10.988;2024-03-08T13:04:27;22.20;;;17.70;;
261;SDS011;114;48.260;10.988;2024-03-08T13:06:52;20.03;;;16.23;;
261;SDS011;114;48.260;10.988;2024-03-08T13:09:21;19.70;;;16.50;;
261;SDS011;114;48.260;10.988;2024-03-08T13:11:50;18.93;;;16.60;;
261;SDS011;114;48.260;10.988;2024-03-08T13:14:16;19.53;;;17.30;;
261;SDS011;114;48.260;10.988;2024-03-08T13:16:42;21.73;;;16.87;;
261;SDS011;114;48.260;10.988;2024-03-08T13:19:12;21.93;;;16.77;;
261;SDS011;114;48.260;10.988;2024-03-08T13:21:45;18.47;;;15.87;;
261;SDS011;114;48.260;10.988;2024-03-08T13:24:14;18.07;;;15.73;;
261;SDS011;114;48.260;10.988;2024-03-08T13:26:41;19.03;;;16.17;;
261;SDS011;114;48.260;10.988;2024-03-08T13:29:08;24.40;;;17.10;;
261;SDS011;114;48.260;10.988;2024-03-08T13:31:35;25.40;;;17.87;;
261;SDS011;114;48.260;10.988;2024-03-08T13:34:02;19.83;;;16.37;;
261;SDS011;114;48.260;10.988;2024-03-08T13:36:33;19.10;;;16.70;;
261;SDS011;114;48.260;10.988;2024-03-08T13:39:04;19.63;;;15.57;;
261;SDS011;114;48.260;10.988;2024-03-08T13:41:40;16.93;;;15.20;;
261;SDS011;114;48.260;10.988;2024-03-08T13:44:11;21.20;;;14.80;;
261;SDS011;114;48.260;10.988;2024-03-08T13:46:36;17.93;;;13.70;;
261;SDS011;114;48.260;10.988;2024-03-08T13:49:05;18.97;;;14.60;;
261;SDS011;114;48.260;10.988;2024-03-08T13:51:34;20.80;;;15.93;;
261;SDS011;114;48.260;10.988;2024-03-08T13:54:00;23.57;;;17.80;;
261;SDS011;114;48.260;10.988;2024-03-08T13:56:28;18.13;;;15.70;;
261;SDS011;114;48.260;10.988;2024-03-08T13:58:57;21.00;;;16.17;;
261;SDS011;114;48.260;10.988;2024-03-08T14:01:23;18.57;;;14.97;;
261;SDS011;114;48.260;10.988;2024-03-08T14:03:48;17.73;;;14.90;;
261;SDS011;114;48.260;10.988;2024-03-08T14:06:15;18.03;;;14.60;;
261;SDS011;114;48.260;10.988;2024-03-08T14:08:41;18.40;;;15.47;;
261;SDS011;114;48.260;10.988;2024-03-08T14:11:10;18.67;;;13.30;;
261;SDS011;114;48.260;10.988;2024-03-08T14:13:44;15.07;;;12.57;;
261;SDS011;114;48.260;10.988;2024-03-08T14:16:13;17.60;;;13.80;;
261;SDS011;114;48.260;10.988;2024-03-08T14:18:40;14.63;;;13.03;;
261;SDS011;114;48.260;10.988;2024-03-08T14:21:07;15.20;;;13.60;;
261;SDS011;114;48.260;10.988;2024-03-08T14:26:13;15.90;;;12.33;;
261;SDS011;114;48.260;10.988;2024-03-08T14:31:25;13.97;;;12.50;;
261;SDS011;114;48.260;10.988;2024-03-08T14:33:57;17.53;;;14.30;;
261;SDS011;114;48.260;10.988;2024-03-08T14:36:24;18.50;;;13.60;;
261;SDS011;114;48.260;10.988;2024-03-08T14:38:58;13.83;;;12.40;;
261;SDS011;114;48.260;10.988;2024-03-08T14:41:24;13.63;;;11.93;;
261;SDS011;114;48.260;10.988;2024-03-08T14:43:52;13.03;;;11.63;;
261;SDS011;114;48.260;10.988;2024-03-08T14:46:21;12.10;;;10.80;;
261;SDS011;114;48.260;10.988;2024-03-08T14:48:54;12.83;;;11.47;;
261;SDS011;114;48.260;10.988;2024-03-08T14:51:25;12.90;;;11.27;;
261;SDS011;114;48.260;10.988;2024-03-08T14:53:53;16.33;;;12.13;;
261;SDS011;114;48.260;10.988;2024-03-08T14:56:24;14.10;;;12.70;;
261;SDS011;114;48.260;10.988;2024-03-08T15:01:58;16.17;;;11.53;;
261;SDS011;114;48.260;10.988;2024-03-08T15:04:25;15.33;;;12.07;;
261;SDS011;114;48.260;10.988;2024-03-08T15:06:53;12.63;;;10.93;;
261;SDS011;114;48.260;10.988;2024-03-08T15:09:22;13.37;;;10.37;;
261;SDS011;114;48.260;10.988;2024-03-08T15:11:49;13.83;;;11.23;;
261;SDS011;114;48.260;10.988;2024-03-08T15:14:29;20.53;;;11.30;;
261;SDS011;114;48.260;10.988;2024-03-08T15:17:10;12.00;;;10.70;;
261;SDS011;114;48.260;10.988;2024-03-08T15:19:48;13.40;;;10.97;;
261;SDS011;114;48.260;10.988;2024-03-08T15:25:16;15.53;;;11.30;;
261;SDS011;114;48.260;10.988;2024-03-08T15:27:47;12.93;;;11.07;;
261;SDS011;114;48.260;10.988;2024-03-08T15:30:13;15.57;;;10.90;;
261;SDS011;114;48.260;10.988;2024-03-08T15:35:15;17.87;;;12.37;;
261;SDS011;114;48.260;10.988;2024-03-08T15:37:50;19.53;;;11.87;;